Terminal Aerodrome Forecast
Issued by NWS

Home | Current Version | Previous Version | Text Only | Print | Product List | Glossary On
Versions: 1 2 3 4 5 6 7 8 9 10 11 12
000
FTUS42 KMLB 050539
TAFFPR
TAF
KFPR 050539Z 0506/0606 VRB03KT P6SM SCT020
      TEMPO 0506/0508 SCT008 BKN020
     FM050800 14003KT P6SM SCT006 BKN010
     FM051500 16011KT P6SM SCT010 BKN025
     FM051800 15014KT P6SM BKN040
     FM060000 16007KT P6SM BKN040=

USA.gov is the U.S. government's official web portal to all federal, state and local government web resources and services.